createdAt,value
2023-05-12T00:02:55.997Z,100.00
2023-05-12T00:07:59.815Z,100.00
2023-05-12T00:13:01.516Z,100.00
2023-05-12T00:18:03.239Z,100.00
2023-05-12T00:23:05.059Z,100.00
2023-05-12T00:28:09.846Z,100.00
2023-05-12T00:33:14.021Z,100.00
2023-05-12T00:38:15.700Z,100.00
2023-05-12T00:43:17.451Z,100.00
2023-05-12T00:48:23.755Z,100.00
2023-05-12T00:53:37.570Z,100.00
2023-05-12T00:58:49.916Z,100.00
2023-05-12T01:03:54.099Z,100.00
2023-05-12T01:09:04.866Z,100.00
2023-05-12T01:14:06.549Z,100.00
2023-05-12T01:19:19.103Z,100.00
2023-05-12T01:24:21.648Z,100.00
2023-05-12T01:29:26.023Z,100.00
2023-05-12T01:34:28.254Z,100.00
2023-05-12T01:39:32.676Z,100.00
2023-05-12T01:44:34.477Z,100.00
2023-05-12T01:49:38.465Z,100.00
2023-05-12T01:54:42.642Z,100.00
2023-05-12T01:59:45.345Z,100.00
2023-05-12T02:04:47.420Z,100.00
2023-05-12T02:09:52.176Z,100.00
2023-05-12T02:14:54.182Z,100.00
2023-05-12T02:19:56.452Z,100.00
2023-05-12T02:24:59.052Z,100.00
2023-05-12T02:30:01.434Z,100.00
2023-05-12T02:35:08.207Z,100.00
2023-05-12T02:40:11.930Z,100.00
2023-05-12T02:45:17.272Z,100.00
2023-05-12T02:50:22.196Z,100.00
2023-05-12T02:55:24.406Z,100.00
2023-05-12T03:00:28.397Z,100.00
2023-05-12T03:05:32.434Z,100.00
2023-05-12T03:10:34.441Z,100.00
2023-05-12T03:15:36.745Z,100.00
2023-05-12T03:20:41.240Z,100.00
2023-05-12T03:25:47.556Z,100.00
2023-05-12T03:30:49.249Z,100.00
2023-05-12T03:35:58.026Z,100.00
2023-05-12T03:41:04.229Z,100.00
2023-05-12T03:46:08.410Z,100.00
2023-05-12T03:51:14.307Z,100.00
2023-05-12T03:56:18.392Z,100.00
2023-05-12T04:01:22.800Z,100.00
2023-05-12T04:06:29.016Z,100.00
2023-05-12T04:11:32.256Z,100.00
2023-05-12T04:16:37.877Z,100.00
2023-05-12T04:21:39.685Z,100.00
2023-05-12T04:26:43.733Z,100.00
2023-05-12T04:31:45.589Z,100.00
2023-05-12T04:36:47.665Z,100.00
2023-05-12T04:41:49.451Z,100.00
2023-05-12T04:46:56.322Z,100.00
2023-05-12T04:51:58.432Z,100.00
2023-05-12T04:57:00.197Z,100.00
2023-05-12T05:02:04.415Z,100.00
2023-05-12T05:07:13.505Z,100.00
2023-05-12T05:12:20.278Z,100.00
2023-05-12T05:17:23.159Z,100.00
2023-05-12T05:22:29.970Z,100.00
2023-05-12T05:27:33.949Z,100.00
2023-05-12T05:32:41.231Z,100.00
2023-05-12T05:37:45.095Z,100.00
2023-05-12T05:42:49.162Z,100.00
2023-05-12T05:47:53.172Z,100.00
2023-05-12T05:52:59.044Z,100.00
2023-05-12T05:58:03.661Z,100.00
2023-05-12T06:03:05.674Z,100.00
2023-05-12T06:08:13.164Z,100.00
2023-05-12T06:13:14.960Z,100.00
2023-05-12T06:18:20.976Z,100.00
2023-05-12T06:23:24.946Z,100.00
2023-05-12T06:28:28.676Z,100.00
2023-05-12T06:33:32.764Z,100.00
2023-05-12T06:38:36.816Z,100.00
2023-05-12T06:43:43.408Z,100.00
2023-05-12T06:48:48.768Z,100.00
2023-05-12T06:53:50.565Z,100.00
2023-05-12T06:58:52.699Z,100.00
2023-05-12T07:04:02.515Z,100.00
2023-05-12T07:09:04.467Z,100.00
2023-05-12T07:14:06.267Z,100.00
2023-05-12T07:19:09.606Z,100.00
2023-05-12T07:24:11.595Z,100.00
2023-05-12T07:29:15.479Z,100.00
2023-05-12T07:34:17.379Z,100.00
2023-05-12T07:39:23.825Z,100.00
2023-05-12T07:44:26.366Z,100.00
2023-05-12T07:49:28.032Z,100.00
2023-05-12T07:54:29.733Z,100.00
2023-05-12T07:59:36.008Z,100.00
2023-05-12T08:04:37.800Z,100.00
2023-05-12T08:09:39.509Z,100.00
2023-05-12T08:14:41.334Z,100.00
2023-05-12T08:19:43.110Z,96.12
2023-05-12T08:24:46.030Z,99.84
2023-05-12T08:29:52.264Z,100.00
2023-05-12T08:34:54.471Z,100.00
2023-05-12T08:40:01.605Z,100.00
2023-05-12T08:45:04.296Z,99.93
2023-05-12T08:50:06.599Z,100.00
2023-05-12T08:55:09.610Z,100.00
2023-05-12T09:00:21.992Z,100.00
2023-05-12T09:05:24.388Z,98.93
2023-05-12T09:10:35.033Z,95.82
2023-05-12T09:15:43.026Z,95.56
2023-05-12T09:20:44.823Z,94.91
2023-05-12T09:25:49.324Z,92.84
2023-05-12T09:30:50.989Z,91.77
2023-05-12T09:35:55.002Z,89.46
2023-05-12T09:40:56.715Z,89.10
2023-05-12T09:46:07.188Z,88.95
2023-05-12T09:51:11.475Z,86.98
2023-05-12T09:56:16.924Z,84.77
2023-05-12T10:01:24.389Z,84.95
2023-05-12T10:06:30.103Z,81.80
2023-05-12T10:11:32.051Z,83.42
2023-05-12T10:16:34.198Z,81.60
2023-05-12T10:21:40.054Z,80.16
2023-05-12T10:26:42.960Z,80.17
2023-05-12T10:31:45.432Z,79.04
2023-05-12T10:36:52.274Z,79.25
2023-05-12T10:42:01.884Z,82.09
2023-05-12T10:47:15.095Z,80.72
2023-05-12T10:52:20.181Z,79.96
2023-05-12T10:57:22.282Z,79.08
2023-05-12T11:02:34.444Z,78.90
2023-05-12T11:07:41.864Z,78.67
2023-05-12T11:12:44.751Z,78.42
2023-05-12T11:17:48.971Z,77.93
2023-05-12T11:22:51.227Z,78.77
2023-05-12T11:27:52.910Z,76.75
2023-05-12T11:33:02.327Z,77.59
2023-05-12T11:38:15.756Z,74.97
2023-05-12T11:43:20.745Z,71.16
2023-05-12T11:48:22.577Z,67.31
2023-05-12T11:53:29.310Z,65.74
2023-05-12T11:58:31.032Z,62.60
2023-05-12T12:03:45.027Z,59.03
2023-05-12T12:09:00.183Z,54.75
2023-05-12T12:14:04.898Z,52.85
2023-05-12T12:19:07.436Z,49.56
2023-05-12T12:24:09.194Z,43.80
2023-05-12T12:29:11.198Z,42.05
2023-05-12T12:34:15.748Z,37.95
2023-05-12T12:39:21.762Z,34.86
2023-05-12T12:44:25.759Z,34.37
2023-05-12T12:49:29.662Z,31.85
2023-05-12T12:54:31.453Z,28.25
2023-05-12T12:59:35.546Z,27.45
2023-05-12T13:04:37.708Z,27.22
2023-05-12T13:09:41.829Z,25.19
2023-05-12T13:14:43.506Z,27.06
2023-05-12T13:19:45.410Z,28.92
2023-05-12T13:24:49.656Z,31.53
2023-05-12T13:29:51.946Z,32.19
2023-05-12T13:34:56.676Z,33.88
2023-05-12T13:40:00.876Z,34.65
2023-05-12T13:45:02.773Z,32.82
2023-05-12T13:50:07.719Z,33.13
2023-05-12T13:55:10.985Z,30.13
2023-05-12T14:00:18.848Z,30.99
2023-05-12T14:05:20.807Z,29.14
2023-05-12T14:10:25.132Z,29.30
2023-05-12T14:15:44.349Z,27.49
2023-05-12T14:20:52.949Z,26.66
2023-05-12T14:25:57.251Z,24.17
2023-05-12T14:30:59.030Z,24.09
2023-05-12T14:36:08.731Z,25.78
2023-05-12T14:41:11.146Z,28.78
2023-05-12T14:46:12.920Z,30.11
2023-05-12T14:51:14.623Z,25.88
2023-05-12T14:56:19.120Z,23.79
2023-05-12T15:01:23.223Z,22.59
2023-05-12T15:06:27.193Z,21.57
2023-05-12T15:11:29.522Z,20.19
2023-05-12T15:16:32.946Z,19.22
2023-05-12T15:21:35.479Z,18.24
2023-05-12T15:26:40.268Z,18.26
2023-05-12T15:31:45.663Z,18.54
2023-05-12T15:36:52.615Z,17.74
2023-05-12T15:41:56.892Z,16.75
2023-05-12T15:46:58.855Z,16.40
2023-05-12T15:52:02.890Z,16.62
2023-05-12T15:57:06.420Z,16.51
2023-05-12T16:02:08.351Z,16.23
2023-05-12T16:07:10.459Z,16.35
2023-05-12T16:12:15.286Z,15.24
2023-05-12T16:17:19.235Z,15.16
2023-05-12T16:22:23.382Z,14.81
2023-05-12T16:27:25.501Z,15.61
2023-05-12T16:32:29.786Z,15.08
2023-05-12T16:37:33.645Z,15.14
2023-05-12T16:42:37.692Z,15.70
2023-05-12T16:47:39.572Z,16.21
2023-05-12T16:52:48.923Z,17.69
2023-05-12T16:57:51.100Z,18.87
2023-05-12T17:02:53.326Z,20.84
2023-05-12T17:07:57.561Z,23.98
2023-05-12T17:12:59.272Z,26.32
2023-05-12T17:18:01.320Z,29.84
2023-05-12T17:23:05.663Z,31.30
2023-05-12T17:28:07.351Z,33.30
2023-05-12T17:33:13.019Z,35.01
2023-05-12T17:38:19.251Z,36.92
2023-05-12T17:43:23.540Z,38.94
2023-05-12T17:48:26.457Z,39.82
2023-05-12T17:53:31.429Z,41.36
2023-05-12T17:58:35.190Z,42.26
2023-05-12T18:03:37.986Z,43.77
2023-05-12T18:08:40.240Z,45.99
2023-05-12T18:13:42.304Z,46.94
2023-05-12T18:18:45.933Z,48.47
2023-05-12T18:23:50.290Z,49.11
2023-05-12T18:28:54.081Z,49.42
2023-05-12T18:33:58.286Z,50.25
2023-05-12T18:38:59.962Z,50.84
2023-05-12T18:44:04.686Z,51.98
2023-05-12T18:49:06.449Z,51.98
2023-05-12T18:54:10.568Z,52.95
2023-05-12T18:59:15.218Z,52.96
2023-05-12T19:04:17.180Z,53.33
2023-05-12T19:09:23.949Z,52.38
2023-05-12T19:14:25.682Z,51.61
2023-05-12T19:19:27.352Z,52.63
2023-05-12T19:24:29.654Z,53.66
2023-05-12T19:29:32.693Z,53.51
2023-05-12T19:34:39.226Z,55.17
2023-05-12T19:39:40.912Z,55.28
2023-05-12T19:44:45.114Z,55.91
2023-05-12T19:49:46.856Z,56.04
2023-05-12T19:54:48.684Z,57.52
2023-05-12T19:59:55.242Z,57.56
2023-05-12T20:05:00.586Z,58.42
2023-05-12T20:10:03.051Z,59.25
2023-05-12T20:15:05.772Z,60.38
2023-05-12T20:20:08.213Z,61.29
2023-05-12T20:25:12.450Z,62.22
2023-05-12T20:30:14.552Z,64.33
2023-05-12T20:35:19.441Z,64.95
2023-05-12T20:40:21.589Z,65.59
2023-05-12T20:45:28.202Z,65.82
2023-05-12T20:50:32.175Z,67.77
2023-05-12T20:55:36.787Z,68.48
2023-05-12T21:00:41.600Z,70.39
2023-05-12T21:05:47.697Z,72.72
2023-05-12T21:10:49.712Z,72.94
2023-05-12T21:15:51.532Z,74.43
2023-05-12T21:20:55.442Z,74.69
2023-05-12T21:25:57.118Z,76.07
2023-05-12T21:30:59.082Z,76.13
2023-05-12T21:36:03.446Z,76.33
2023-05-12T21:41:07.749Z,75.41
2023-05-12T21:46:09.459Z,73.68
2023-05-12T21:51:13.659Z,73.26
2023-05-12T21:56:15.437Z,72.86
2023-05-12T22:01:18.396Z,72.06
2023-05-12T22:06:20.157Z,70.90
2023-05-12T22:11:25.064Z,71.11
2023-05-12T22:16:38.317Z,72.93
2023-05-12T22:21:43.439Z,74.35
2023-05-12T22:26:47.482Z,74.63
2023-05-12T22:31:49.318Z,76.59
2023-05-12T22:36:53.095Z,77.33
2023-05-12T22:41:54.735Z,78.53
2023-05-12T22:46:56.517Z,79.07
2023-05-12T22:51:58.521Z,79.79
2023-05-12T22:57:02.297Z,81.20
2023-05-12T23:02:04.925Z,81.86
2023-05-12T23:07:09.025Z,82.25
2023-05-12T23:12:11.306Z,83.15
2023-05-12T23:17:12.969Z,84.87
2023-05-12T23:22:14.674Z,84.93
2023-05-12T23:27:16.362Z,86.61
2023-05-12T23:32:20.407Z,86.64
2023-05-12T23:37:24.372Z,86.58
2023-05-12T23:42:28.316Z,86.11
2023-05-12T23:47:32.493Z,86.38
2023-05-12T23:52:34.228Z,86.42
2023-05-12T23:57:40.745Z,87.04
